Time;durP1;ratioP1;P1;durP2;ratioP2;P2;SDS_P1;SDS_P2;PMS_P1;PMS_P2;Temp;Humidity;BMP_temperature;BMP_pressure;BME280_temperature;BME280_humidity;BME280_pressure;Samples;Min_cycle;Max_cycle;Signal;HPM_P1;HPM_P2
2022/04/08 00:00:41;;;;;;;10.43;2.03;;;;;;;5.32;84.07;99512.75;5081232;28;20097;-64
2022/04/08 00:03:07;;;;;;;8.75;1.65;;;;;;;5.38;82.95;99524.72;5082134;28;20059;-63
2022/04/08 00:05:32;;;;;;;14.68;2.35;;;;;;;5.31;84.67;99524.22;5081651;28;20043;-62
2022/04/08 00:07:57;;;;;;;11.10;2.33;;;;;;;5.35;83.29;99515.16;5081502;28;20546;-63
2022/04/08 00:10:23;;;;;;;10.65;1.75;;;;;;;5.30;83.98;99516.41;5081339;28;20055;-62
2022/04/08 00:12:48;;;;;;;11.82;1.88;;;;;;;5.32;82.73;99530.34;5081711;28;20150;-63
2022/04/08 00:15:14;;;;;;;10.70;1.77;;;;;;;5.37;83.14;99536.19;5080230;28;20042;-62
2022/04/08 00:17:39;;;;;;;10.73;2.30;;;;;;;5.40;83.59;99539.50;5080055;28;20044;-63
2022/04/08 00:20:05;;;;;;;9.45;1.92;;;;;;;5.34;84.38;99545.19;5081707;28;20043;-62
2022/04/08 00:22:31;;;;;;;10.90;1.88;;;;;;;5.37;83.92;99555.59;5062266;28;20409;-62
2022/04/08 00:24:57;;;;;;;10.10;1.77;;;;;;;5.42;82.87;99555.28;5061711;28;20465;-62
2022/04/08 00:27:22;;;;;;;5.30;1.20;;;;;;;5.41;83.70;99565.00;5061730;28;20040;-63
2022/04/08 00:29:48;;;;;;;7.53;1.58;;;;;;;5.42;82.28;99561.44;5061382;28;20040;-62
2022/04/08 00:32:13;;;;;;;9.30;2.10;;;;;;;5.42;83.24;99585.22;5060010;28;20036;-62
2022/04/08 00:34:39;;;;;;;6.60;1.60;;;;;;;5.42;81.90;99579.94;5061402;28;20052;-62
2022/04/08 00:37:04;;;;;;;7.35;1.98;;;;;;;5.45;82.25;99587.66;5060687;28;20443;-62
2022/04/08 00:39:30;;;;;;;10.98;1.88;;;;;;;5.42;81.72;99582.56;5076289;28;20886;-62
2022/04/08 00:41:58;;;;;;;10.95;1.63;;;;;;;5.40;82.49;99584.44;5081568;28;20043;-62
2022/04/08 00:44:24;;;;;;;8.60;2.13;;;;;;;5.37;82.47;99603.16;5080868;28;20084;-62
2022/04/08 00:46:50;;;;;;;15.82;2.15;;;;;;;5.34;83.70;99607.78;5082046;28;20031;-62
2022/04/08 00:49:15;;;;;;;14.88;1.67;;;;;;;5.35;82.96;99618.25;5081079;28;20481;-62
2022/04/08 00:51:41;;;;;;;6.70;1.90;;;;;;;5.35;84.41;99622.69;5080933;28;20066;-63
2022/04/08 00:54:08;;;;;;;9.98;1.60;;;;;;;5.28;83.43;99627.50;5081249;28;20858;-62
2022/04/08 00:56:34;;;;;;;9.77;2.00;;;;;;;5.25;82.73;99624.19;5081568;28;20434;-66
2022/04/08 00:59:00;;;;;;;6.47;1.50;;;;;;;5.17;82.95;99629.94;5079525;28;20074;-63
2022/04/08 01:01:26;;;;;;;14.50;2.15;;;;;;;5.19;82.59;99630.72;5081212;28;20813;-62
2022/04/08 01:03:52;;;;;;;9.93;2.53;;;;;;;5.24;81.51;99635.72;5079867;28;20036;-62
2022/04/08 01:06:21;;;;;;;8.65;1.92;;;;;;;5.25;81.83;99634.78;5081619;28;20036;-62
2022/04/08 01:08:49;;;;;;;10.38;2.55;;;;;;;5.19;82.47;99644.78;5085561;28;20081;-63
2022/04/08 01:11:15;;;;;;;6.43;1.58;;;;;;;5.23;82.32;99649.88;5085834;28;20105;-62
2022/04/08 01:13:40;;;;;;;13.10;1.95;;;;;;;5.23;81.95;99653.38;5085554;28;20048;-64
2022/04/08 01:16:07;;;;;;;10.93;2.15;;;;;;;5.26;80.90;99657.59;5085119;28;20055;-62
2022/04/08 01:18:32;;;;;;;10.43;2.00;;;;;;;5.24;80.58;99676.19;5083811;28;20040;-62
2022/04/08 01:20:57;;;;;;;13.23;2.00;;;;;;;5.26;80.32;99673.47;5082796;28;20629;-62
2022/04/08 01:23:23;;;;;;;10.73;1.90;;;;;;;5.24;80.40;99668.28;5082286;28;20047;-62
2022/04/08 01:25:49;;;;;;;10.70;2.47;;;;;;;5.24;80.63;99680.66;5085068;28;20036;-62
2022/04/08 01:28:14;;;;;;;9.88;1.77;;;;;;;5.23;80.10;99687.72;5084292;28;20546;-63
2022/04/08 01:30:40;;;;;;;10.45;2.85;;;;;;;5.24;80.57;99697.34;5083969;28;20055;-62
2022/04/08 01:33:06;;;;;;;15.00;3.10;;;;;;;5.23;80.07;99698.28;5083662;28;20717;-62
2022/04/08 01:35:32;;;;;;;11.55;2.80;;;;;;;5.16;79.35;99689.88;5083114;28;20224;-63
2022/04/08 01:37:57;;;;;;;9.32;2.08;;;;;;;5.07;78.37;99695.72;5080376;28;20035;-63
2022/04/08 01:40:23;;;;;;;19.30;2.63;;;;;;;4.98;79.09;99695.41;5062747;28;20799;-62
2022/04/08 01:42:48;;;;;;;13.15;2.83;;;;;;;4.89;78.91;99702.06;5062656;28;20043;-62
2022/04/08 01:45:14;;;;;;;14.75;2.03;;;;;;;4.76;80.04;99696.63;5062560;28;20040;-62
2022/04/08 01:47:39;;;;;;;14.07;2.83;;;;;;;4.72;79.65;99703.06;5062991;28;20059;-63
2022/04/08 01:50:05;;;;;;;12.18;1.77;;;;;;;4.67;79.25;99715.69;5061616;28;20050;-62
2022/04/08 01:52:31;;;;;;;20.50;2.75;;;;;;;4.59;79.50;99713.47;5063143;28;20040;-62
2022/04/08 01:54:56;;;;;;;13.40;2.05;;;;;;;4.53;79.82;99713.81;5083104;28;20035;-62
2022/04/08 01:57:23;;;;;;;10.20;2.08;;;;;;;4.47;80.18;99722.09;5083649;28;20039;-64
2022/04/08 01:59:52;;;;;;;13.55;2.92;;;;;;;4.51;79.91;99728.03;5076865;28;20044;-62
2022/04/08 02:02:18;;;;;;;5.72;1.75;;;;;;;4.41;80.20;99731.16;5079584;28;20039;-63
2022/04/08 02:04:43;;;;;;;18.27;3.38;;;;;;;4.49;79.45;99728.13;5084180;28;20044;-62
2022/04/08 02:07:08;;;;;;;16.33;2.78;;;;;;;4.42;79.85;99732.06;5065632;28;20036;-62
2022/04/08 02:09:34;;;;;;;6.38;2.15;;;;;;;4.35;79.99;99725.41;5063545;28;20085;-62
2022/04/08 02:11:59;;;;;;;15.80;2.95;;;;;;;4.31;80.38;99739.69;5063732;28;20583;-62
2022/04/08 02:14:25;;;;;;;12.95;2.55;;;;;;;4.25;80.79;99750.59;5064234;28;20511;-62
2022/04/08 02:16:50;;;;;;;18.67;2.65;;;;;;;4.23;80.76;99741.91;5064491;28;20037;-62
2022/04/08 02:19:15;;;;;;;13.73;2.35;;;;;;;4.20;81.12;99744.72;5063562;28;20037;-63
2022/04/08 02:21:42;;;;;;;20.63;2.85;;;;;;;4.19;80.43;99741.22;5064093;28;20106;-62
2022/04/08 02:24:08;;;;;;;16.08;3.03;;;;;;;4.10;81.48;99739.09;5063563;28;20044;-62
2022/04/08 02:26:33;;;;;;;7.97;2.40;;;;;;;4.02;81.68;99751.84;5067177;28;20683;-61
2022/04/08 02:28:59;;;;;;;8.85;2.45;;;;;;;4.07;81.53;99741.91;5083353;28;20040;-62
2022/04/08 02:31:24;;;;;;;18.75;3.28;;;;;;;4.05;82.33;99743.75;5083223;28;20040;-62
2022/04/08 02:33:49;;;;;;;11.90;2.53;;;;;;;4.04;82.14;99747.34;5066729;28;20044;-62
2022/04/08 02:36:15;;;;;;;14.65;2.28;;;;;;;3.95;82.42;99742.56;5064065;28;20036;-61
2022/04/08 02:38:40;;;;;;;14.77;2.58;;;;;;;4.00;82.20;99736.09;5071764;28;20028;-62
2022/04/08 02:41:06;;;;;;;14.00;2.47;;;;;;;3.99;82.45;99737.03;5082161;28;20100;-61
2022/04/08 02:43:31;;;;;;;24.73;3.03;;;;;;;3.97;82.34;99740.72;5083449;28;20400;-63
2022/04/08 02:45:57;;;;;;;18.42;2.80;;;;;;;3.93;82.95;99741.78;5083072;28;20048;-62
2022/04/08 02:48:22;;;;;;;14.63;2.22;;;;;;;3.97;82.33;99743.34;5077672;28;20043;-62
2022/04/08 02:50:47;;;;;;;17.13;3.08;;;;;;;3.89;83.18;99743.75;5080955;28;20050;-62
2022/04/08 02:53:13;;;;;;;24.70;3.33;;;;;;;3.86;83.00;99741.25;5084171;28;20043;-63
2022/04/08 02:55:38;;;;;;;20.80;2.33;;;;;;;3.86;82.81;99749.16;5084310;28;20093;-62
2022/04/08 02:58:04;;;;;;;16.52;2.78;;;;;;;3.88;82.57;99753.44;5084891;28;20117;-62
2022/04/08 03:00:29;;;;;;;15.82;2.55;;;;;;;3.87;82.90;99756.16;5083055;28;20139;-61
2022/04/08 03:02:55;;;;;;;18.02;3.33;;;;;;;3.80;83.52;99755.63;5085236;28;20516;-62
2022/04/08 03:05:21;;;;;;;29.70;4.22;;;;;;;3.82;83.35;99763.47;5084256;28;20528;-61
2022/04/08 03:07:46;;;;;;;27.58;3.67;;;;;;;3.79;83.66;99767.09;5083287;28;20048;-62
2022/04/08 03:10:12;;;;;;;13.35;2.45;;;;;;;3.80;82.78;99766.16;5084328;28;20094;-62
2022/04/08 03:12:38;;;;;;;13.73;2.80;;;;;;;3.87;81.79;99775.47;5084575;28;20173;-63
2022/04/08 03:15:05;;;;;;;22.23;3.33;;;;;;;3.83;82.17;99776.56;5085138;28;20115;-62
2022/04/08 03:17:30;;;;;;;18.58;3.10;;;;;;;3.87;81.91;99772.00;5085383;28;20032;-62
2022/04/08 03:19:56;;;;;;;21.38;3.40;;;;;;;3.92;81.12;99779.66;5085235;28;20059;-63
2022/04/08 03:22:22;;;;;;;16.00;2.70;;;;;;;3.95;81.00;99782.13;5066550;28;20052;-62
2022/04/08 03:24:48;;;;;;;20.88;3.55;;;;;;;3.95;81.34;99782.13;5064164;28;20040;-62
2022/04/08 03:27:15;;;;;;;18.50;3.15;;;;;;;4.04;80.57;99789.53;5064548;28;20042;-62
2022/04/08 03:29:40;;;;;;;14.02;2.70;;;;;;;4.04;80.35;99803.56;5062185;28;20037;-62
2022/04/08 03:32:06;;;;;;;10.13;2.75;;;;;;;4.08;80.77;99810.41;5063476;28;20086;-62
2022/04/08 03:34:32;;;;;;;13.13;2.65;;;;;;;4.15;79.83;99813.56;5062780;28;20044;-62
2022/04/08 03:36:57;;;;;;;17.48;3.45;;;;;;;4.15;80.38;99824.97;5078398;28;20685;-62
2022/04/08 03:39:23;;;;;;;20.42;2.40;;;;;;;4.17;80.49;99832.81;5081550;28;20127;-62
2022/04/08 03:41:48;;;;;;;15.65;2.33;;;;;;;4.21;79.66;99834.31;5068393;28;20102;-62
2022/04/08 03:44:14;;;;;;;14.45;2.50;;;;;;;4.20;79.68;99831.78;5067831;28;20032;-62
2022/04/08 03:46:41;;;;;;;10.75;2.17;;;;;;;4.20;77.88;99835.25;5062190;28;20036;-62
2022/04/08 03:49:12;;;;;;;11.32;2.08;;;;;;;4.17;79.80;99835.44;5060632;28;20048;-62
2022/04/08 03:51:38;;;;;;;18.33;2.83;;;;;;;4.10;80.20;99834.06;5062687;28;20139;-62
2022/04/08 03:54:03;;;;;;;18.30;2.78;;;;;;;4.09;80.02;99843.75;5062116;28;20056;-62
2022/04/08 03:56:29;;;;;;;13.45;2.25;;;;;;;4.05;79.71;99847.47;5069704;28;20079;-62
2022/04/08 03:58:54;;;;;;;14.68;2.00;;;;;;;4.03;80.21;99851.16;5061057;28;20089;-62
2022/04/08 04:01:20;;;;;;;22.98;2.72;;;;;;;4.01;80.04;99856.47;5062488;28;20443;-62
2022/04/08 04:03:45;;;;;;;15.65;3.08;;;;;;;3.97;80.28;99847.06;5062241;28;20040;-62
2022/04/08 04:06:11;;;;;;;7.45;2.25;;;;;;;3.96;80.41;99836.56;5061610;28;20051;-62
2022/04/08 04:08:37;;;;;;;15.25;2.88;;;;;;;3.95;81.00;99848.03;5060185;28;20036;-62
2022/04/08 04:11:02;;;;;;;16.02;2.78;;;;;;;3.84;80.99;99849.47;5061289;28;20047;-62
2022/04/08 04:13:27;;;;;;;17.65;3.15;;;;;;;3.81;81.41;99843.47;5061472;28;20044;-62
2022/04/08 04:15:53;;;;;;;11.23;2.65;;;;;;;3.76;81.72;99854.25;5061165;28;20044;-62
2022/04/08 04:18:18;;;;;;;15.80;3.10;;;;;;;3.66;82.09;99849.53;5059290;28;20048;-64
2022/04/08 04:20:44;;;;;;;10.32;2.45;;;;;;;3.66;81.47;99845.13;5065070;28;20477;-62
2022/04/08 04:23:09;;;;;;;13.90;2.42;;;;;;;3.61;82.06;99855.03;5080849;28;20047;-62
2022/04/08 04:25:34;;;;;;;7.38;1.88;;;;;;;3.53;82.44;99850.19;5080788;28;20051;-62
2022/04/08 04:28:01;;;;;;;9.10;2.22;;;;;;;3.48;82.66;99852.19;5080653;28;20097;-62
2022/04/08 04:30:27;;;;;;;6.65;1.90;;;;;;;3.45;82.94;99846.22;5080846;28;20177;-62
2022/04/08 04:32:53;;;;;;;10.48;2.20;;;;;;;3.41;83.10;99842.03;5079875;28;20048;-62
2022/04/08 04:35:19;;;;;;;8.40;1.92;;;;;;;3.29;83.00;99841.69;5081591;28;20054;-63
2022/04/08 04:37:44;;;;;;;11.18;2.13;;;;;;;3.33;83.53;99845.91;5079701;28;20823;-63
2022/04/08 04:40:10;;;;;;;8.75;1.75;;;;;;;3.34;83.83;99842.31;5080311;28;20074;-62
2022/04/08 04:42:36;;;;;;;7.30;2.17;;;;;;;3.23;84.31;99844.66;5063361;28;20120;-62
2022/04/08 04:45:01;;;;;;;3.58;1.73;;;;;;;3.21;84.32;99838.59;5069037;28;20576;-61
2022/04/08 04:47:27;;;;;;;11.55;2.13;;;;;;;3.25;84.52;99842.78;5061036;28;20048;-62
2022/04/08 04:49:52;;;;;;;11.00;2.70;;;;;;;3.23;84.70;99847.28;5071640;28;20039;-62
2022/04/08 04:52:17;;;;;;;10.73;2.58;;;;;;;3.15;84.94;99846.78;5081252;28;20032;-61
2022/04/08 04:54:43;;;;;;;15.45;3.13;;;;;;;3.11;85.70;99847.88;5081482;28;20044;-62
2022/04/08 04:57:08;;;;;;;11.88;2.88;;;;;;;3.08;86.21;99854.16;5080799;28;20040;-62
2022/04/08 04:59:34;;;;;;;11.48;3.15;;;;;;;3.06;86.18;99852.50;5080079;28;20054;-62
2022/04/08 05:01:59;;;;;;;10.55;3.20;;;;;;;3.04;86.58;99849.97;5068932;28;20036;-62
2022/04/08 05:04:25;;;;;;;15.13;3.38;;;;;;;3.08;86.28;99848.03;5062952;28;20121;-62
2022/04/08 05:06:50;;;;;;;17.55;2.97;;;;;;;3.11;86.61;99850.50;5068317;28;20048;-61
2022/04/08 05:09:16;;;;;;;15.30;3.42;;;;;;;3.20;85.75;99850.06;5064662;28;20436;-62
2022/04/08 05:11:41;;;;;;;12.90;3.25;;;;;;;3.16;85.97;99848.50;5067204;28;20036;-61
2022/04/08 05:14:06;;;;;;;11.20;4.05;;;;;;;3.19;86.00;99852.78;5069050;28;20029;-62
2022/04/08 05:16:32;;;;;;;15.68;3.72;;;;;;;3.28;85.38;99842.63;5066663;28;20044;-65
2022/04/08 05:18:57;;;;;;;24.73;3.70;;;;;;;3.30;84.93;99846.03;5067414;28;20031;-62
2022/04/08 05:21:23;;;;;;;15.32;3.40;;;;;;;3.33;85.24;99840.63;5067184;28;20044;-63
2022/04/08 05:23:49;;;;;;;16.50;4.10;;;;;;;3.42;85.04;99849.03;5066138;28;20788;-62
2022/04/08 05:26:15;;;;;;;16.40;4.50;;;;;;;3.43;84.30;99851.56;5071080;28;20047;-62
2022/04/08 05:28:41;;;;;;;23.15;4.63;;;;;;;3.50;84.11;99846.84;5065516;28;20041;-62
2022/04/08 05:31:06;;;;;;;16.35;4.72;;;;;;;3.65;83.59;99851.31;5068015;28;20048;-61
2022/04/08 05:33:32;;;;;;;15.25;3.67;;;;;;;3.63;83.20;99846.16;5068049;28;20063;-62
2022/04/08 05:35:57;;;;;;;14.13;3.33;;;;;;;3.74;83.01;99850.88;5063927;28;20473;-62
2022/04/08 05:38:22;;;;;;;22.10;4.13;;;;;;;3.74;83.15;99848.22;5064497;28;20045;-62
2022/04/08 05:40:49;;;;;;;16.52;3.50;;;;;;;3.84;83.03;99845.97;5061728;28;20033;-62
2022/04/08 05:43:15;;;;;;;22.50;3.42;;;;;;;4.00;82.12;99848.66;5058547;28;20044;-62
2022/04/08 05:45:41;;;;;;;12.63;3.17;;;;;;;4.19;81.89;99845.91;5077513;28;20071;-62
2022/04/08 05:48:07;;;;;;;19.88;3.65;;;;;;;4.16;81.46;99844.28;5079545;28;20032;-62
2022/04/08 05:50:33;;;;;;;15.35;3.40;;;;;;;4.23;81.07;99831.63;5068806;28;20047;-62
2022/04/08 05:52:58;;;;;;;20.33;3.85;;;;;;;4.36;80.80;99838.78;5073558;28;20044;-62
2022/04/08 05:55:24;;;;;;;20.65;3.85;;;;;;;4.30;80.76;99833.84;5068823;28;20048;-62
2022/04/08 05:57:53;;;;;;;10.25;3.35;;;;;;;4.45;80.37;99832.16;5069769;28;20040;-62
2022/04/08 06:00:20;;;;;;;19.08;3.97;;;;;;;4.64;79.45;99837.28;5064579;28;20048;-62
2022/04/08 06:02:47;;;;;;;6.22;2.80;;;;;;;4.85;79.33;99841.38;5060353;28;20039;-62
2022/04/08 06:05:18;;;;;;;22.27;3.72;;;;;;;4.97;78.77;99838.97;5060843;28;20048;-62
2022/04/08 06:07:50;;;;;;;20.95;3.50;;;;;;;5.16;78.25;99834.34;5060912;28;20050;-62
2022/04/08 06:10:18;;;;;;;12.52;3.20;;;;;;;5.09;77.81;99830.38;5060653;28;20462;-62
2022/04/08 06:12:47;;;;;;;13.88;3.88;;;;;;;4.97;78.31;99821.34;5059930;28;20040;-62
2022/04/08 06:15:12;;;;;;;14.07;3.08;;;;;;;4.92;78.62;99818.97;5058154;28;20048;-63
2022/04/08 06:17:38;;;;;;;17.15;3.63;;;;;;;5.10;78.10;99826.78;5058242;28;20515;-62
2022/04/08 06:20:13;;;;;;;14.35;3.67;;;;;;;5.15;78.03;99830.00;5060463;28;20043;-62
2022/04/08 06:22:40;;;;;;;14.85;3.15;;;;;;;5.18;77.73;99833.34;5066484;28;20086;-62
2022/04/08 06:25:07;;;;;;;16.90;2.85;;;;;;;5.25;77.67;99833.81;5069158;28;20040;-62
2022/04/08 06:27:33;;;;;;;20.55;3.50;;;;;;;5.25;77.90;99833.81;5081430;28;20042;-62
2022/04/08 06:29:58;;;;;;;13.48;4.13;;;;;;;5.49;77.05;99828.06;5070889;28;20040;-62
2022/04/08 06:32:24;;;;;;;13.88;3.50;;;;;;;5.81;76.47;99839.38;5060879;28;20036;-62
2022/04/08 06:34:49;;;;;;;15.25;4.28;;;;;;;5.70;76.44;99840.84;5067943;28;20049;-62
2022/04/08 06:37:15;;;;;;;9.55;3.38;;;;;;;5.69;75.94;99838.31;5059640;28;20044;-62
2022/04/08 06:39:40;;;;;;;10.07;3.42;;;;;;;5.69;76.52;99844.44;5071213;28;20036;-62
2022/04/08 06:42:06;;;;;;;18.48;4.93;;;;;;;5.65;75.78;99840.28;5064416;28;20036;-62
2022/04/08 06:44:31;;;;;;;15.52;3.00;;;;;;;5.69;75.32;99843.59;5066458;28;20039;-64
2022/04/08 06:46:57;;;;;;;15.32;3.63;;;;;;;5.91;74.33;99851.97;5061459;28;20032;-62
2022/04/08 06:49:22;;;;;;;14.48;3.50;;;;;;;6.05;75.15;99842.38;5073442;28;20085;-63
2022/04/08 06:51:48;;;;;;;9.07;3.00;;;;;;;6.37;74.39;99838.56;5059321;28;20155;-63
2022/04/08 06:54:13;;;;;;;13.25;3.22;;;;;;;6.23;73.54;99843.91;5067859;28;20040;-62
2022/04/08 06:56:39;;;;;;;11.95;3.70;;;;;;;6.36;73.32;99836.88;5074507;28;20109;-62
2022/04/08 06:59:04;;;;;;;10.43;3.22;;;;;;;6.49;73.29;99836.97;5068253;28;20579;-63
2022/04/08 07:01:30;;;;;;;6.57;3.35;;;;;;;6.42;73.68;99828.56;5080500;28;20561;-63
2022/04/08 07:03:56;;;;;;;12.00;3.30;;;;;;;6.57;72.66;99832.03;5080202;28;20039;-64
2022/04/08 07:06:22;;;;;;;6.93;2.80;;;;;;;6.56;72.11;99830.34;5079594;28;20136;-62
2022/04/08 07:08:47;;;;;;;14.90;3.30;;;;;;;6.95;71.30;99826.94;5079480;28;20032;-62
2022/04/08 07:11:13;;;;;;;11.43;3.20;;;;;;;6.84;72.24;99831.25;5058059;28;20545;-62
2022/04/08 07:13:41;;;;;;;11.32;3.45;;;;;;;7.12;70.96;99832.94;5057938;28;20048;-63
2022/04/08 07:16:07;;;;;;;12.73;2.85;;;;;;;7.27;69.60;99829.28;5059483;28;20048;-63
2022/04/08 07:18:32;;;;;;;10.07;3.05;;;;;;;7.14;69.58;99836.38;5058918;28;20480;-62
2022/04/08 07:20:58;;;;;;;8.13;3.00;;;;;;;7.19;69.35;99829.81;5065302;28;20040;-63
2022/04/08 07:23:23;;;;;;;10.00;2.75;;;;;;;7.15;69.68;99827.47;5076447;28;20040;-62
2022/04/08 07:25:49;;;;;;;7.45;3.55;;;;;;;7.43;68.58;99830.00;5064149;28;20043;-62
2022/04/08 07:28:14;;;;;;;7.05;2.33;;;;;;;7.40;68.26;99830.19;5062601;28;20063;-62
2022/04/08 07:30:39;;;;;;;10.55;3.08;;;;;;;7.35;67.94;99828.78;5069162;28;20040;-62
2022/04/08 07:33:05;;;;;;;6.10;2.28;;;;;;;7.63;67.98;99825.13;5066115;28;20056;-62
2022/04/08 07:35:30;;;;;;;7.88;2.13;;;;;;;7.67;68.40;99830.13;5068460;28;20036;-62
2022/04/08 07:37:57;;;;;;;9.10;2.45;;;;;;;7.49;67.27;99836.69;5063408;28;20063;-62
2022/04/08 07:40:23;;;;;;;9.88;3.10;;;;;;;7.69;67.43;99828.22;5068066;28;20445;-62
2022/04/08 07:42:49;;;;;;;11.65;2.40;;;;;;;8.03;67.04;99824.13;5063384;28;20039;-62
2022/04/08 07:45:15;;;;;;;11.63;2.95;;;;;;;8.02;66.99;99824.22;5070979;28;20036;-63
2022/04/08 07:47:40;;;;;;;10.65;2.40;;;;;;;7.76;67.54;99821.53;5064989;28;20481;-63
2022/04/08 07:50:10;;;;;;;8.75;2.40;;;;;;;7.73;65.16;99826.19;5064434;28;20780;-62
2022/04/08 07:52:37;;;;;;;8.60;2.47;;;;;;;7.73;65.22;99824.44;5061778;28;20048;-63
2022/04/08 07:55:03;;;;;;;7.15;2.25;;;;;;;7.79;66.01;99825.81;5067965;28;20163;-62
2022/04/08 07:57:29;;;;;;;11.07;2.53;;;;;;;8.17;65.39;99822.31;5066044;28;20040;-62
2022/04/08 07:59:54;;;;;;;6.95;2.30;;;;;;;7.96;65.13;99820.19;5062285;28;20044;-62
2022/04/08 08:02:19;;;;;;;7.10;2.08;;;;;;;7.70;65.57;99818.47;5069659;28;20047;-62
2022/04/08 08:04:45;;;;;;;9.35;2.63;;;;;;;7.77;66.46;99809.13;5062690;28;20427;-62
2022/04/08 08:07:10;;;;;;;7.00;2.78;;;;;;;7.86;66.25;99811.16;5071227;28;20477;-62
2022/04/08 08:09:36;;;;;;;9.93;2.67;;;;;;;7.73;67.18;99807.63;5064634;28;20041;-62
2022/04/08 08:12:02;;;;;;;9.25;1.98;;;;;;;8.16;65.23;99802.03;5071203;28;20058;-63
2022/04/08 08:14:28;;;;;;;7.93;2.22;;;;;;;8.05;64.93;99795.66;5060739;28;20075;-62
2022/04/08 08:16:54;;;;;;;12.65;2.40;;;;;;;8.02;65.51;99797.66;5089250;28;20199;-63
2022/04/08 08:19:19;;;;;;;10.20;2.10;;;;;;;8.25;65.55;99801.38;5100027;28;20035;-63
2022/04/08 08:21:45;;;;;;;8.80;2.08;;;;;;;8.35;64.08;99807.75;5099657;28;20143;-62
2022/04/08 08:24:10;;;;;;;10.55;2.20;;;;;;;8.38;64.02;99804.03;5081702;28;20124;-63
2022/04/08 08:26:36;;;;;;;7.07;2.40;;;;;;;8.08;63.49;99809.66;5098784;28;20035;-63
2022/04/08 08:29:01;;;;;;;9.25;2.20;;;;;;;8.11;62.85;99812.97;5098880;28;20471;-63
2022/04/08 08:31:27;;;;;;;6.88;2.47;;;;;;;8.27;62.35;99802.94;5098957;28;20043;-62
2022/04/08 08:33:53;;;;;;;9.40;2.53;;;;;;;8.53;59.66;99805.59;5085848;28;20583;-62
2022/04/08 08:36:18;;;;;;;14.70;2.25;;;;;;;8.24;61.31;99799.69;5077789;28;20040;-62
2022/04/08 08:38:45;;;;;;;6.75;1.90;;;;;;;8.67;61.46;99800.16;5070500;28;20052;-62
2022/04/08 08:41:11;;;;;;;15.10;2.30;;;;;;;8.32;61.12;99794.66;5061053;28;20048;-62
2022/04/08 08:43:37;;;;;;;6.35;1.85;;;;;;;8.34;59.82;99794.56;5060984;28;20040;-61
2022/04/08 08:46:04;;;;;;;5.85;1.30;;;;;;;8.66;60.23;99793.13;5061115;28;20043;-62
2022/04/08 08:48:33;;;;;;;14.20;2.28;;;;;;;8.65;60.35;99796.75;5060584;28;20044;-62
2022/04/08 08:51:03;;;;;;;9.13;1.77;;;;;;;8.96;60.29;99790.06;5060696;28;20045;-62
2022/04/08 08:53:33;;;;;;;7.10;2.65;;;;;;;9.17;59.86;99784.94;5060601;28;20040;-62
2022/04/08 08:56:00;;;;;;;12.45;2.45;;;;;;;8.70;60.32;99780.47;5063474;28;20276;-62
2022/04/08 08:58:25;;;;;;;7.40;2.03;;;;;;;9.07;61.13;99776.81;5062195;28;20040;-64
2022/04/08 09:00:51;;;;;;;8.95;2.58;;;;;;;8.97;61.30;99783.75;5060548;28;20553;-62
2022/04/08 09:03:16;;;;;;;5.65;1.83;;;;;;;8.84;60.14;99780.34;5060864;28;20047;-62
2022/04/08 09:05:44;;;;;;;9.25;2.25;;;;;;;8.84;60.85;99766.19;5059068;28;20052;-62
2022/04/08 09:08:11;;;;;;;8.85;3.00;;;;;;;8.86;61.17;99767.75;5060738;28;20053;-61
2022/04/08 09:10:40;;;;;;;8.50;2.63;;;;;;;9.07;59.37;99773.28;5059425;28;20047;-62
2022/04/08 09:13:09;;;;;;;10.00;2.67;;;;;;;9.08;60.75;99762.53;5060453;28;20033;-61
2022/04/08 09:15:37;;;;;;;8.13;1.92;;;;;;;8.76;59.96;99764.94;5060141;28;20043;-62
2022/04/08 09:18:09;;;;;;;8.15;2.45;;;;;;;8.86;59.62;99759.78;5062277;28;20089;-62
2022/04/08 09:20:45;;;;;;;12.05;2.95;;;;;;;9.01;60.20;99749.81;5065448;28;20059;-62
2022/04/08 09:23:12;;;;;;;10.93;2.80;;;;;;;9.01;59.94;99756.00;5069971;28;20048;-61
2022/04/08 09:25:39;;;;;;;8.02;2.85;;;;;;;9.78;59.10;99744.84;5059817;28;20127;-62
2022/04/08 09:28:13;;;;;;;12.68;2.90;;;;;;;9.34;57.64;99744.66;5056565;28;20052;-62
2022/04/08 09:30:39;;;;;;;8.57;2.80;;;;;;;9.68;58.93;99739.38;5061234;28;20032;-62
2022/04/08 09:33:12;;;;;;;8.77;2.47;;;;;;;9.93;57.91;99735.66;5059644;28;20057;-62
2022/04/08 09:35:39;;;;;;;11.18;2.83;;;;;;;9.85;59.15;99741.59;5061428;28;20037;-62
2022/04/08 09:38:04;;;;;;;9.73;2.92;;;;;;;10.03;59.38;99741.94;5064049;28;20040;-62
2022/04/08 09:40:40;;;;;;;8.25;3.30;;;;;;;9.90;58.11;99746.56;5073318;28;20032;-61
2022/04/08 09:43:06;;;;;;;10.48;3.13;;;;;;;9.59;57.98;99745.44;5065759;28;20112;-62
2022/04/08 09:45:32;;;;;;;10.13;3.22;;;;;;;9.84;56.94;99736.41;5067431;28;20036;-62
2022/04/08 09:47:59;;;;;;;7.45;3.13;;;;;;;10.00;56.50;99744.03;5067221;28;20042;-61
2022/04/08 09:50:25;;;;;;;8.13;3.78;;;;;;;9.53;57.37;99744.06;5073799;28;20425;-62
2022/04/08 09:52:51;;;;;;;11.57;3.10;;;;;;;9.34;57.21;99741.13;5074379;28;20117;-61
2022/04/08 09:55:17;;;;;;;9.95;3.10;;;;;;;9.79;57.41;99735.91;5076289;28;20036;-62
2022/04/08 09:57:45;;;;;;;10.98;2.70;;;;;;;9.68;55.84;99725.22;5074988;28;20040;-61
2022/04/08 10:00:11;;;;;;;13.77;3.47;;;;;;;10.16;56.81;99735.66;5077758;28;20064;-62
2022/04/08 10:02:41;;;;;;;9.13;2.92;;;;;;;10.10;55.64;99727.19;5067271;28;20036;-62
2022/04/08 10:05:08;;;;;;;9.50;3.78;;;;;;;10.28;56.80;99724.06;5070071;28;20482;-62
2022/04/08 10:07:34;;;;;;;14.68;3.13;;;;;;;10.43;56.44;99716.63;5068179;28;20572;-62
2022/04/08 10:10:37;;;;;;;8.38;2.60;;;;;;;10.08;55.70;99736.25;5069392;28;20044;-63
2022/04/08 10:13:26;;;;;;;11.80;2.40;;;;;;;10.24;55.50;99730.59;5074646;28;20110;-62
2022/04/08 10:16:16;;;;;;;11.77;2.92;;;;;;;9.80;56.35;99730.44;5069143;28;20032;-62
2022/04/08 10:18:44;;;;;;;7.63;2.60;;;;;;;10.21;55.53;99736.16;5070218;28;20075;-62
2022/04/08 10:21:10;;;;;;;11.40;3.53;;;;;;;9.69;56.42;99729.56;5066903;28;20866;-62
2022/04/08 10:23:55;;;;;;;6.00;2.63;;;;;;;9.64;56.35;99723.75;5068193;28;20101;-61
2022/04/08 10:26:22;;;;;;;11.13;3.42;;;;;;;9.35;57.35;99729.53;5064261;28;20400;-62
2022/04/08 10:28:48;;;;;;;10.82;3.25;;;;;;;9.73;56.78;99723.03;5066608;28;20474;-62
2022/04/08 10:31:23;;;;;;;11.93;3.25;;;;;;;9.87;56.59;99725.50;5068530;28;20081;-62
2022/04/08 10:33:59;;;;;;;10.95;3.55;;;;;;;9.84;57.01;99726.59;5076216;28;20044;-63
2022/04/08 10:36:31;;;;;;;7.80;2.97;;;;;;;9.42;55.50;99736.06;5063392;28;20043;-62
2022/04/08 10:39:16;;;;;;;8.50;2.63;;;;;;;9.70;56.58;99723.31;5072308;28;20037;-62
2022/04/08 10:41:57;;;;;;;10.52;3.40;;;;;;;9.77;56.47;99733.34;5062508;28;20103;-62
2022/04/08 10:44:41;;;;;;;8.17;2.80;;;;;;;9.82;56.82;99736.50;5063587;28;20044;-62
2022/04/08 10:47:15;;;;;;;9.27;3.70;;;;;;;9.77;57.25;99725.34;5066722;28;20036;-62
2022/04/08 10:49:50;;;;;;;9.43;3.05;;;;;;;9.71;57.93;99728.50;5069153;28;20075;-62
2022/04/08 10:52:18;;;;;;;12.25;4.10;;;;;;;9.53;56.93;99733.41;5068288;28;20400;-62
2022/04/08 10:54:44;;;;;;;9.07;3.70;;;;;;;9.82;55.77;99725.84;5062678;28;20029;-61
2022/04/08 10:57:09;;;;;;;15.50;3.92;;;;;;;10.45;53.82;99704.91;5074477;28;20534;-62
2022/04/08 10:59:35;;;;;;;7.18;3.08;;;;;;;10.20;55.46;99711.31;5062959;28;20029;-62
2022/04/08 11:02:05;;;;;;;9.50;2.97;;;;;;;10.42;55.83;99712.28;5064781;28;20032;-62
2022/04/08 11:04:31;;;;;;;15.10;3.95;;;;;;;10.53;54.92;99713.09;5066608;28;20172;-62
2022/04/08 11:07:03;;;;;;;10.70;3.28;;;;;;;10.84;54.68;99715.91;5061766;28;20060;-61
2022/04/08 11:09:30;;;;;;;6.80;3.38;;;;;;;11.02;52.73;99713.56;5064281;28;20379;-62
2022/04/08 11:11:55;;;;;;;10.57;3.28;;;;;;;11.11;55.07;99713.63;5063782;28;20050;-62
2022/04/08 11:14:21;;;;;;;10.77;3.78;;;;;;;10.81;52.77;99716.19;5064120;28;20045;-62
2022/04/08 11:16:49;;;;;;;9.13;3.80;;;;;;;10.52;55.19;99714.06;5060704;28;20040;-62
2022/04/08 11:19:14;;;;;;;11.73;3.72;;;;;;;10.07;53.46;99731.91;5067330;28;20115;-62
2022/04/08 11:21:41;;;;;;;7.90;3.75;;;;;;;10.12;56.24;99727.91;5064296;28;20036;-61
2022/04/08 11:24:10;;;;;;;9.35;3.60;;;;;;;10.38;56.22;99704.53;5064896;28;20121;-62
2022/04/08 11:26:50;;;;;;;10.93;3.33;;;;;;;10.68;54.38;99708.34;5067161;28;20093;-62
2022/04/08 11:29:19;;;;;;;14.32;3.70;;;;;;;10.54;54.29;99701.50;5065154;28;20043;-62
2022/04/08 11:31:47;;;;;;;10.23;3.50;;;;;;;11.05;54.22;99691.97;5065963;28;20568;-62
2022/04/08 11:34:13;;;;;;;6.93;3.15;;;;;;;10.74;54.33;99683.81;5071182;28;20174;-62